createdAt,value
2023-02-28T00:00:17.863Z,11.3
2023-02-28T00:02:17.613Z,11.1
2023-02-28T00:04:15.550Z,11.6
2023-02-28T00:06:16.253Z,9.3
2023-02-28T00:08:14.920Z,10.6
2023-02-28T00:10:19.263Z,10.6
2023-02-28T00:12:15.109Z,9.6
2023-02-28T00:14:12.791Z,12.5
2023-02-28T00:16:14.801Z,11.3
2023-02-28T00:18:12.241Z,11.6
2023-02-28T00:20:13.483Z,9.8
2023-02-28T00:24:10.080Z,10.4
2023-02-28T00:26:10.128Z,12.8
2023-02-28T00:28:08.915Z,11.6
2023-02-28T00:30:12.249Z,11.7
2023-02-28T00:32:07.858Z,11.7
2023-02-28T00:34:07.403Z,11.1
2023-02-28T00:36:10.031Z,11.2
2023-02-28T00:38:06.135Z,10.5
2023-02-28T00:42:06.653Z,10.4
2023-02-28T00:44:04.654Z,10.9
2023-02-28T00:46:05.033Z,9.7
2023-02-28T00:48:04.313Z,10.3
2023-02-28T00:50:04.055Z,9.5
2023-02-28T00:54:02.142Z,8.8
2023-02-28T00:56:01.795Z,9.2
2023-02-28T00:58:00.565Z,10.8
2023-02-28T01:00:00.168Z,9.1
2023-02-28T01:01:59.483Z,17.2
2023-02-28T01:03:59.070Z,8.8
2023-02-28T01:05:59.068Z,9.1
2023-02-28T01:07:57.788Z,9.9
2023-02-28T01:09:57.262Z,10.7
2023-02-28T01:11:57.041Z,11.6
2023-02-28T01:13:57.216Z,9.4
2023-02-28T01:15:56.515Z,12.1
2023-02-28T01:17:55.350Z,10.3
2023-02-28T01:19:55.496Z,11.8
2023-02-28T01:23:56.691Z,9.6
2023-02-28T01:25:53.223Z,11.8
2023-02-28T01:29:52.278Z,9.9
2023-02-28T01:31:51.348Z,9.7
2023-02-28T01:33:50.882Z,10.2
2023-02-28T01:35:50.186Z,10.0
2023-02-28T01:37:49.456Z,11.8
2023-02-28T01:39:49.064Z,12.8
2023-02-28T01:41:48.788Z,9.9
2023-02-28T01:45:47.526Z,11.9
2023-02-28T01:47:50.298Z,10.3
2023-02-28T01:49:47.475Z,10.5
2023-02-28T01:51:50.755Z,10.7
2023-02-28T01:53:49.203Z,10.7
2023-02-28T01:55:48.487Z,10.6
2023-02-28T01:59:48.911Z,8.9
2023-02-28T02:01:43.039Z,10.4
2023-02-28T02:03:42.200Z,11.0
2023-02-28T02:05:42.130Z,11.5
2023-02-28T02:07:44.433Z,11.3
2023-02-28T02:09:40.392Z,11.1
2023-02-28T02:11:42.139Z,11.5
2023-02-28T02:13:58.700Z,12.4
2023-02-28T02:15:43.785Z,10.3
2023-02-28T02:19:57.306Z,13.1
2023-02-28T02:21:56.744Z,9.5
2023-02-28T02:23:56.158Z,10.5
2023-02-28T02:25:43.075Z,12.2
2023-02-28T02:27:55.090Z,10.8
2023-02-28T02:29:52.443Z,10.6
2023-02-28T02:31:54.237Z,10.1
2023-02-28T02:33:51.835Z,11.3
2023-02-28T02:35:39.924Z,10.4
2023-02-28T02:37:38.489Z,12.1
2023-02-28T02:39:40.790Z,11.1
2023-02-28T02:41:37.020Z,9.4
2023-02-28T02:47:31.938Z,11.3
2023-02-28T02:49:33.210Z,12.2
2023-02-28T02:51:32.768Z,12.2
2023-02-28T02:53:32.477Z,11.4
2023-02-28T02:55:28.428Z,10.4
2023-02-28T02:57:32.343Z,13.1
2023-02-28T02:59:28.379Z,11.6
2023-02-28T03:01:29.431Z,11.1
2023-02-28T03:05:30.491Z,10.6
2023-02-28T03:07:25.553Z,11.3
2023-02-28T03:09:24.585Z,11.5
2023-02-28T03:11:23.353Z,12.0
2023-02-28T03:13:41.877Z,10.8
2023-02-28T03:15:26.980Z,10.9
2023-02-28T03:17:34.873Z,13.7
2023-02-28T03:19:33.817Z,12.0
2023-02-28T03:21:27.369Z,11.7
2023-02-28T03:23:27.085Z,12.3
2023-02-28T03:25:24.155Z,12.6
2023-02-28T03:27:24.957Z,12.7
2023-02-28T03:29:27.880Z,14.6
2023-02-28T03:31:22.590Z,14.5
2023-02-28T03:33:19.729Z,14.4
2023-02-28T03:35:21.857Z,13.3
2023-02-28T03:37:19.564Z,12.1
2023-02-28T03:39:19.272Z,11.5
2023-02-28T03:41:19.249Z,10.8
2023-02-28T03:43:20.166Z,13.0
2023-02-28T03:45:16.710Z,14.2
2023-02-28T03:47:17.487Z,12.8
2023-02-28T03:49:17.100Z,12.1
2023-02-28T03:51:17.241Z,13.2
2023-02-28T03:53:14.364Z,15.5
2023-02-28T03:55:12.549Z,12.3
2023-02-28T03:57:16.208Z,13.2
2023-02-28T03:59:14.688Z,12.2
2023-02-28T04:01:12.767Z,12.8
2023-02-28T04:03:07.429Z,15.3
2023-02-28T04:05:08.203Z,13.8
2023-02-28T04:07:08.588Z,12.0
2023-02-28T04:09:07.606Z,14.0
2023-02-28T04:11:12.949Z,14.3
2023-02-28T04:13:04.471Z,11.9
2023-02-28T04:15:04.943Z,13.5
2023-02-28T04:17:03.467Z,15.4
2023-02-28T04:19:05.074Z,13.5
2023-02-28T04:23:01.596Z,12.9
2023-02-28T04:25:00.861Z,14.0
2023-02-28T04:27:00.522Z,12.9
2023-02-28T04:29:00.618Z,14.3
2023-02-28T04:32:58.535Z,11.2
2023-02-28T04:34:58.051Z,15.0
2023-02-28T04:40:57.813Z,12.9
2023-02-28T04:42:55.722Z,14.5
2023-02-28T04:44:55.172Z,11.7
2023-02-28T04:46:54.595Z,14.8
2023-02-28T04:48:54.353Z,14.6
2023-02-28T04:50:53.319Z,15.4
2023-02-28T04:52:52.925Z,14.9
2023-02-28T04:54:52.080Z,13.8
2023-02-28T05:00:51.001Z,17.1
2023-02-28T05:02:49.901Z,13.4
2023-02-28T05:04:49.503Z,15.8
2023-02-28T05:06:48.738Z,16.6
2023-02-28T05:08:48.036Z,15.3
2023-02-28T05:10:47.603Z,12.8
2023-02-28T05:12:48.039Z,21.2
2023-02-28T05:14:46.237Z,15.4
2023-02-28T05:16:46.234Z,14.3
2023-02-28T05:18:46.015Z,15.5
2023-02-28T05:20:44.560Z,15.4
2023-02-28T05:22:44.619Z,16.0
2023-02-28T05:26:43.438Z,17.5
2023-02-28T05:28:42.497Z,15.7
2023-02-28T05:30:41.793Z,17.8
2023-02-28T05:32:42.822Z,16.3
2023-02-28T05:34:41.546Z,17.6
2023-02-28T05:36:40.380Z,15.6
2023-02-28T05:38:39.859Z,15.1
2023-02-28T05:40:39.856Z,14.1
2023-02-28T05:42:38.755Z,18.2
2023-02-28T05:44:37.892Z,20.8
2023-02-28T05:46:38.407Z,15.6
2023-02-28T05:48:38.222Z,15.5
2023-02-28T05:50:36.251Z,16.2
2023-02-28T05:52:35.794Z,15.7
2023-02-28T05:54:35.080Z,17.1
2023-02-28T05:58:34.725Z,19.4
2023-02-28T06:00:33.286Z,16.6
2023-02-28T06:02:32.768Z,15.3
2023-02-28T06:04:32.550Z,19.5
2023-02-28T06:06:36.440Z,18.0
2023-02-28T06:08:31.027Z,19.0
2023-02-28T06:10:30.440Z,20.1
2023-02-28T06:12:29.947Z,18.5
2023-02-28T06:14:31.156Z,17.1
2023-02-28T06:18:28.558Z,15.6
2023-02-28T06:20:29.360Z,16.4
2023-02-28T06:24:28.016Z,18.2
2023-02-28T06:26:26.374Z,16.3
2023-02-28T06:28:26.267Z,18.0
2023-02-28T06:30:26.801Z,16.5
2023-02-28T06:32:24.842Z,17.0
2023-02-28T06:34:24.080Z,17.2
2023-02-28T06:36:23.859Z,16.8
2023-02-28T06:38:22.561Z,18.0
2023-02-28T06:40:21.989Z,16.6
2023-02-28T06:42:22.161Z,15.2
2023-02-28T06:44:21.688Z,18.2
2023-02-28T06:46:20.724Z,16.7
2023-02-28T06:48:19.766Z,17.3
2023-02-28T06:50:20.462Z,18.9
2023-02-28T06:52:18.736Z,17.3
2023-02-28T06:54:18.416Z,16.9
2023-02-28T06:56:18.749Z,14.0
2023-02-28T06:58:18.952Z,18.6
2023-02-28T07:00:16.970Z,18.4
2023-02-28T07:02:15.905Z,17.1
2023-02-28T07:04:15.459Z,20.0
2023-02-28T07:08:15.207Z,18.6
2023-02-28T07:10:19.019Z,18.9
2023-02-28T07:12:13.090Z,15.8
2023-02-28T07:14:12.674Z,15.3
2023-02-28T07:16:12.274Z,16.0
2023-02-28T07:18:11.357Z,16.9
2023-02-28T07:20:11.859Z,17.0
2023-02-28T07:22:10.246Z,18.0
2023-02-28T07:24:10.396Z,17.5
2023-02-28T07:26:14.722Z,21.9
2023-02-28T07:28:08.514Z,15.3
2023-02-28T07:30:08.658Z,17.8
2023-02-28T07:34:07.289Z,19.4
2023-02-28T07:36:13.505Z,18.5
2023-02-28T07:38:07.463Z,15.8
2023-02-28T07:40:08.368Z,18.4
2023-02-28T07:42:04.910Z,17.2
2023-02-28T07:44:04.210Z,17.6
2023-02-28T07:46:06.082Z,17.4
2023-02-28T07:48:03.214Z,15.6
2023-02-28T07:52:02.631Z,14.6
2023-02-28T07:54:02.172Z,17.5
2023-02-28T07:56:02.863Z,17.5
2023-02-28T07:58:00.688Z,14.6
2023-02-28T07:59:59.856Z,15.0
2023-02-28T08:01:59.489Z,13.9
2023-02-28T08:03:58.694Z,15.7
2023-02-28T08:05:58.065Z,16.9
2023-02-28T08:07:57.917Z,16.0
2023-02-28T08:09:57.430Z,14.2
2023-02-28T08:11:56.535Z,14.9
2023-02-28T08:13:55.948Z,13.9
2023-02-28T08:15:55.919Z,15.9
2023-02-28T08:19:54.423Z,13.8
2023-02-28T08:21:54.162Z,15.7
2023-02-28T08:23:53.501Z,13.8
2023-02-28T08:25:53.292Z,12.7
2023-02-28T08:27:53.058Z,11.7
2023-02-28T08:29:51.655Z,14.5
2023-02-28T08:31:51.505Z,13.0
2023-02-28T08:33:52.883Z,15.0
2023-02-28T08:35:52.569Z,11.9
2023-02-28T08:37:50.079Z,15.4
2023-02-28T08:39:49.028Z,13.0
2023-02-28T08:41:53.426Z,12.5
2023-02-28T08:43:48.128Z,13.2
2023-02-28T08:45:47.885Z,10.1
2023-02-28T08:47:46.861Z,11.2
2023-02-28T08:49:46.474Z,9.6
2023-02-28T08:51:46.078Z,13.2
2023-02-28T08:53:45.748Z,11.9
2023-02-28T08:55:45.095Z,11.0
2023-02-28T08:57:44.583Z,10.8
2023-02-28T08:59:43.684Z,9.0
2023-02-28T09:05:42.199Z,9.6
2023-02-28T09:07:41.935Z,9.2
2023-02-28T09:09:51.281Z,10.0
2023-02-28T09:11:40.695Z,12.0
2023-02-28T09:13:40.651Z,7.9
2023-02-28T09:15:39.865Z,10.5
2023-02-28T09:17:39.104Z,8.4
2023-02-28T09:19:38.637Z,9.6
2023-02-28T09:23:38.345Z,8.1
2023-02-28T09:25:37.870Z,7.1
2023-02-28T09:27:37.164Z,7.1
2023-02-28T09:29:36.135Z,7.3
2023-02-28T09:31:35.384Z,10.0
2023-02-28T09:33:34.849Z,7.5
2023-02-28T09:35:34.736Z,7.7
2023-02-28T09:37:33.826Z,6.8
2023-02-28T09:41:45.391Z,6.7
2023-02-28T09:43:35.745Z,7.1
2023-02-28T09:45:35.455Z,6.0
2023-02-28T09:47:35.056Z,8.9
2023-02-28T09:49:38.387Z,5.6
2023-02-28T09:51:40.257Z,7.1
2023-02-28T09:53:34.120Z,8.3
2023-02-28T09:55:41.436Z,6.8
2023-02-28T09:59:42.025Z,5.7
2023-02-28T10:01:35.156Z,5.4
2023-02-28T10:03:32.592Z,8.2
2023-02-28T10:05:31.641Z,7.5
2023-02-28T10:09:30.458Z,6.1
2023-02-28T10:11:28.343Z,5.8
2023-02-28T10:13:32.255Z,6.0
2023-02-28T10:15:28.000Z,9.7
2023-02-28T10:17:26.818Z,6.8
2023-02-28T10:19:32.421Z,6.9
2023-02-28T10:21:28.515Z,4.5
2023-02-28T10:23:27.134Z,6.3
2023-02-28T10:25:24.984Z,4.6
2023-02-28T10:27:23.325Z,6.1
2023-02-28T10:31:21.247Z,5.4
2023-02-28T10:33:24.253Z,5.1
2023-02-28T10:35:23.235Z,6.8
2023-02-28T10:37:19.949Z,4.5
2023-02-28T10:39:37.622Z,6.0
2023-02-28T10:43:19.818Z,4.6
2023-02-28T10:47:19.861Z,7.0
2023-02-28T10:49:20.782Z,5.7
2023-02-28T10:51:18.157Z,5.8
2023-02-28T10:53:28.389Z,5.8
2023-02-28T10:55:21.768Z,4.4
2023-02-28T10:57:18.887Z,6.3
2023-02-28T10:59:28.031Z,4.9
2023-02-28T11:01:16.536Z,4.9
2023-02-28T11:05:24.086Z,5.5
2023-02-28T11:07:20.715Z,5.8
2023-02-28T11:11:11.762Z,4.4
2023-02-28T11:15:22.413Z,5.8
2023-02-28T11:17:19.353Z,5.4
2023-02-28T11:19:20.547Z,5.4
2023-02-28T11:21:15.941Z,4.9
2023-02-28T11:23:13.894Z,3.9
2023-02-28T11:27:25.851Z,4.2
2023-02-28T11:29:12.815Z,3.9
2023-02-28T11:31:19.379Z,5.3
2023-02-28T11:33:22.580Z,4.3
2023-02-28T11:35:22.337Z,4.4
2023-02-28T11:37:11.721Z,4.6
2023-02-28T11:39:11.031Z,4.9
2023-02-28T11:41:17.360Z,4.1
2023-02-28T11:43:19.503Z,3.3
2023-02-28T11:45:15.906Z,5.9
2023-02-28T11:49:18.732Z,4.4
2023-02-28T11:51:12.783Z,4.5
2023-02-28T11:53:10.633Z,5.0
2023-02-28T11:55:16.240Z,4.0
2023-02-28T11:57:09.290Z,4.3
2023-02-28T11:59:15.105Z,3.2
2023-02-28T12:01:14.896Z,3.4
2023-02-28T12:03:06.891Z,4.5
2023-02-28T12:05:09.702Z,3.6
2023-02-28T12:07:08.354Z,4.9
2023-02-28T12:09:15.593Z,6.0
2023-02-28T12:15:12.997Z,4.2
2023-02-28T12:17:09.042Z,3.2
2023-02-28T12:19:07.569Z,4.7
2023-02-28T12:21:04.642Z,4.2
2023-02-28T12:23:10.541Z,5.7
2023-02-28T12:25:12.591Z,3.8
2023-02-28T12:26:58.012Z,4.2
2023-02-28T12:32:58.257Z,5.2
2023-02-28T12:34:57.477Z,4.1
2023-02-28T12:40:55.206Z,4.2
2023-02-28T12:42:55.130Z,4.1
2023-02-28T12:46:52.029Z,3.5
2023-02-28T12:48:53.420Z,4.8
2023-02-28T12:50:49.001Z,3.8
2023-02-28T12:54:52.583Z,4.0
2023-02-28T12:56:54.471Z,6.8
2023-02-28T12:58:51.458Z,4.9
2023-02-28T13:01:05.478Z,3.9
2023-02-28T13:03:05.385Z,4.4
2023-02-28T13:07:00.145Z,4.5
2023-02-28T13:08:59.919Z,4.3
2023-02-28T13:10:46.378Z,3.9
2023-02-28T13:14:43.197Z,5.2
2023-02-28T13:16:56.848Z,4.8
2023-02-28T13:18:44.927Z,4.1
2023-02-28T13:20:49.663Z,4.1
2023-02-28T13:22:44.099Z,5.0
2023-02-28T13:24:45.418Z,4.5
2023-02-28T13:27:00.121Z,4.9
2023-02-28T13:31:01.745Z,6.9
2023-02-28T13:32:39.147Z,5.1
2023-02-28T13:34:39.933Z,3.7
2023-02-28T13:36:38.056Z,5.7
2023-02-28T13:38:41.423Z,6.3
2023-02-28T13:40:37.992Z,7.3
2023-02-28T13:42:49.612Z,6.9
2023-02-28T13:44:56.034Z,5.8
2023-02-28T13:46:56.592Z,4.8
2023-02-28T13:48:35.564Z,4.2
2023-02-28T13:50:37.720Z,5.5
2023-02-28T13:52:48.664Z,4.5
2023-02-28T13:54:46.074Z,4.1
2023-02-28T13:56:43.268Z,7.3
2023-02-28T13:58:43.263Z,5.3
2023-02-28T14:00:45.777Z,5.1
2023-02-28T14:02:45.954Z,5.7
2023-02-28T14:04:52.159Z,4.9
2023-02-28T14:08:33.564Z,5.7
2023-02-28T14:10:32.608Z,3.8
2023-02-28T14:12:50.144Z,5.5
2023-02-28T14:14:49.763Z,4.2
2023-02-28T14:16:39.823Z,6.4
2023-02-28T14:18:32.237Z,5.0
2023-02-28T14:20:32.740Z,6.1
2023-02-28T14:22:44.870Z,6.2
2023-02-28T14:24:47.568Z,4.7
2023-02-28T14:26:42.885Z,6.6
2023-02-28T14:28:43.684Z,7.1
2023-02-28T14:30:42.382Z,5.7
2023-02-28T14:32:32.875Z,6.0
2023-02-28T14:34:37.705Z,5.5
2023-02-28T14:36:28.105Z,8.0
2023-02-28T14:38:28.115Z,4.4
2023-02-28T14:40:29.537Z,5.3
2023-02-28T14:42:33.615Z,4.4
2023-02-28T14:44:25.433Z,5.0
2023-02-28T14:46:26.699Z,4.7
2023-02-28T14:48:25.742Z,6.5
2023-02-28T14:54:24.009Z,4.8
2023-02-28T14:56:23.829Z,5.0
2023-02-28T14:58:24.700Z,5.2
2023-02-28T15:00:24.265Z,4.9
2023-02-28T15:02:22.225Z,8.0
2023-02-28T15:04:24.957Z,5.0
2023-02-28T15:06:18.859Z,5.4
2023-02-28T15:08:18.062Z,5.0
2023-02-28T15:10:20.736Z,5.1
2023-02-28T15:12:17.224Z,5.7
2023-02-28T15:16:20.359Z,4.7
2023-02-28T15:18:24.553Z,4.9
2023-02-28T15:20:16.571Z,5.0
2023-02-28T15:22:19.466Z,4.7
2023-02-28T15:24:23.719Z,4.7
2023-02-28T15:26:17.861Z,5.6
2023-02-28T15:28:18.483Z,6.8
2023-02-28T15:30:18.132Z,5.8
2023-02-28T15:32:26.536Z,6.7
2023-02-28T15:34:23.280Z,5.9
2023-02-28T15:36:14.937Z,4.6
2023-02-28T15:38:15.570Z,5.2
2023-02-28T15:40:15.015Z,5.7
2023-02-28T15:44:16.886Z,5.5
2023-02-28T15:46:12.414Z,5.4
2023-02-28T15:48:18.621Z,5.1
2023-02-28T15:50:13.860Z,5.6
2023-02-28T15:52:15.102Z,6.0
2023-02-28T15:56:22.787Z,6.1
2023-02-28T15:58:12.880Z,5.9
2023-02-28T16:02:18.092Z,4.7
2023-02-28T16:06:09.536Z,5.8
2023-02-28T16:08:14.636Z,5.1
2023-02-28T16:10:06.141Z,7.3
2023-02-28T16:12:05.411Z,6.5
2023-02-28T16:14:04.798Z,6.5
2023-02-28T16:16:04.023Z,6.5
2023-02-28T16:18:03.276Z,5.7
2023-02-28T16:20:12.673Z,4.8
2023-02-28T16:24:01.695Z,5.2
2023-02-28T16:26:03.804Z,5.9
2023-02-28T16:28:01.846Z,6.0
2023-02-28T16:30:01.068Z,4.8
2023-02-28T16:32:01.221Z,5.2
2023-02-28T16:33:59.506Z,6.2
2023-02-28T16:35:59.519Z,7.0
2023-02-28T16:37:58.892Z,6.5
2023-02-28T16:39:58.327Z,6.5
2023-02-28T16:41:57.841Z,6.7
2023-02-28T16:44:00.159Z,7.3
2023-02-28T16:47:56.732Z,5.1
2023-02-28T16:49:56.362Z,5.7
2023-02-28T16:51:55.813Z,8.6
2023-02-28T16:53:55.152Z,6.1
2023-02-28T16:55:55.064Z,4.4
2023-02-28T16:57:56.368Z,8.3
2023-02-28T16:59:53.792Z,6.2
2023-02-28T17:01:54.180Z,5.5
2023-02-28T17:03:53.668Z,6.9
2023-02-28T17:05:52.912Z,7.9
2023-02-28T17:07:52.310Z,5.1
2023-02-28T17:09:51.533Z,7.1
2023-02-28T17:11:51.051Z,6.9
2023-02-28T17:13:51.001Z,5.5
2023-02-28T17:15:50.466Z,5.6
2023-02-28T17:17:49.970Z,6.1
2023-02-28T17:19:49.455Z,7.4
2023-02-28T17:23:48.304Z,7.4
2023-02-28T17:25:56.301Z,6.7
2023-02-28T17:27:47.676Z,7.5
2023-02-28T17:29:47.210Z,8.6
2023-02-28T17:31:47.383Z,11.9
2023-02-28T17:35:45.647Z,9.0
2023-02-28T17:37:45.248Z,10.7
2023-02-28T17:39:44.561Z,7.2
2023-02-28T17:41:44.200Z,7.9
2023-02-28T17:43:44.076Z,6.4
2023-02-28T17:45:43.310Z,7.5
2023-02-28T17:47:45.625Z,6.5
2023-02-28T17:49:42.329Z,6.5
2023-02-28T17:51:41.865Z,7.7
2023-02-28T17:53:41.773Z,7.1
2023-02-28T17:55:41.205Z,6.0
2023-02-28T17:57:41.758Z,7.6
2023-02-28T17:59:40.817Z,6.8
2023-02-28T18:01:39.697Z,7.8
2023-02-28T18:03:39.879Z,7.7
2023-02-28T18:05:38.858Z,7.6
2023-02-28T18:07:39.328Z,7.9
2023-02-28T18:09:37.663Z,5.6
2023-02-28T18:11:42.579Z,7.5
2023-02-28T18:13:36.556Z,7.0
2023-02-28T18:15:36.152Z,7.0
2023-02-28T18:19:35.712Z,6.6
2023-02-28T18:21:35.261Z,6.2
2023-02-28T18:23:34.634Z,7.6
2023-02-28T18:25:33.702Z,6.6
2023-02-28T18:27:33.247Z,7.7
2023-02-28T18:29:32.810Z,7.9
2023-02-28T18:31:33.106Z,7.3
2023-02-28T18:33:31.930Z,9.6
2023-02-28T18:35:35.260Z,12.4
2023-02-28T18:37:30.776Z,8.4
2023-02-28T18:39:30.397Z,7.5
2023-02-28T18:41:29.889Z,8.7
2023-02-28T18:43:31.650Z,6.8
2023-02-28T18:45:28.987Z,8.6
2023-02-28T18:47:28.324Z,9.5
2023-02-28T18:49:27.859Z,10.0
2023-02-28T18:51:29.208Z,11.1
2023-02-28T18:53:27.803Z,9.7
2023-02-28T18:55:26.856Z,8.7
2023-02-28T18:57:25.681Z,7.6
2023-02-28T18:59:26.040Z,10.5
2023-02-28T19:01:28.961Z,8.3
2023-02-28T19:03:24.571Z,7.3
2023-02-28T19:05:23.828Z,8.8
2023-02-28T19:07:23.584Z,8.2
2023-02-28T19:09:22.761Z,9.2
2023-02-28T19:11:23.246Z,8.9
2023-02-28T19:13:21.664Z,8.7
2023-02-28T19:15:21.246Z,8.7
2023-02-28T19:17:20.733Z,10.4
2023-02-28T19:19:20.364Z,9.9
2023-02-28T19:21:21.543Z,9.1
2023-02-28T19:23:19.150Z,8.0
2023-02-28T19:25:18.699Z,10.8
2023-02-28T19:27:18.761Z,10.6
2023-02-28T19:29:17.557Z,10.1
2023-02-28T19:33:16.828Z,10.4
2023-02-28T19:35:16.270Z,9.0
2023-02-28T19:37:15.515Z,10.4
2023-02-28T19:39:15.126Z,10.4
2023-02-28T19:41:15.907Z,10.9
2023-02-28T19:43:13.659Z,10.8
2023-02-28T19:45:13.804Z,11.7
2023-02-28T19:47:13.049Z,13.2
2023-02-28T19:49:12.089Z,10.0
2023-02-28T19:51:13.409Z,12.5
2023-02-28T19:55:10.659Z,13.6
2023-02-28T19:57:10.233Z,14.0
2023-02-28T19:59:21.022Z,12.1
2023-02-28T20:01:11.434Z,13.3
2023-02-28T20:03:08.425Z,14.2
2023-02-28T20:05:08.516Z,13.0
2023-02-28T20:07:07.479Z,12.8
2023-02-28T20:09:06.919Z,14.0
2023-02-28T20:11:08.518Z,13.2
2023-02-28T20:13:05.594Z,12.8
2023-02-28T20:15:05.932Z,13.4
2023-02-28T20:17:04.620Z,14.7
2023-02-28T20:19:03.902Z,14.0
2023-02-28T20:21:06.733Z,14.1
2023-02-28T20:23:03.257Z,17.2
2023-02-28T20:25:02.445Z,12.0
2023-02-28T20:27:02.916Z,15.0
2023-02-28T20:29:01.203Z,13.3
2023-02-28T20:31:01.392Z,15.1
2023-02-28T20:33:00.689Z,13.2
2023-02-28T20:34:59.539Z,13.4
2023-02-28T20:36:59.760Z,13.9
2023-02-28T20:39:00.341Z,16.8
2023-02-28T20:40:59.832Z,13.3
2023-02-28T20:42:57.218Z,13.5
2023-02-28T20:44:56.958Z,10.7
2023-02-28T20:46:56.245Z,12.2
2023-02-28T20:48:55.753Z,12.6
2023-02-28T20:50:56.868Z,15.8
2023-02-28T20:52:55.470Z,13.0
2023-02-28T20:54:53.850Z,12.9
2023-02-28T20:56:54.013Z,12.1
2023-02-28T20:58:54.925Z,13.2
2023-02-28T21:00:59.192Z,12.9
2023-02-28T21:02:51.821Z,13.7
2023-02-28T21:04:51.238Z,14.0
2023-02-28T21:06:50.960Z,10.5
2023-02-28T21:08:50.481Z,15.6
2023-02-28T21:10:49.523Z,16.9
2023-02-28T21:12:49.231Z,14.0
2023-02-28T21:18:47.806Z,15.2
2023-02-28T21:20:46.801Z,16.7
2023-02-28T21:22:46.058Z,13.9
2023-02-28T21:24:45.599Z,15.8
2023-02-28T21:26:46.345Z,15.4
2023-02-28T21:28:49.062Z,14.7
2023-02-28T21:30:43.967Z,15.7
2023-02-28T21:32:43.577Z,15.3
2023-02-28T21:34:42.684Z,16.0
2023-02-28T21:36:44.405Z,16.8
2023-02-28T21:40:41.046Z,15.4
2023-02-28T21:42:40.419Z,17.7
2023-02-28T21:44:40.246Z,17.5
2023-02-28T21:46:39.482Z,14.1
2023-02-28T21:48:40.610Z,15.6
2023-02-28T21:50:38.840Z,17.3
2023-02-28T21:52:37.541Z,17.0
2023-02-28T21:54:36.987Z,13.9
2023-02-28T21:56:37.620Z,15.6
2023-02-28T21:58:36.074Z,16.0
2023-02-28T22:00:35.408Z,14.4
2023-02-28T22:02:35.798Z,13.8
2023-02-28T22:04:34.101Z,14.1
2023-02-28T22:06:35.666Z,15.5
2023-02-28T22:10:33.162Z,16.9
2023-02-28T22:14:31.358Z,14.3
2023-02-28T22:16:44.229Z,16.0
2023-02-28T22:18:30.228Z,12.7
2023-02-28T22:20:29.775Z,15.4
2023-02-28T22:22:29.561Z,14.9
2023-02-28T22:24:28.651Z,13.2
2023-02-28T22:26:29.035Z,15.8
2023-02-28T22:28:29.483Z,15.4
2023-02-28T22:30:27.418Z,15.0
2023-02-28T22:32:26.709Z,16.8
2023-02-28T22:34:26.050Z,16.4
2023-02-28T22:36:26.417Z,17.4
2023-02-28T22:38:26.374Z,14.7
2023-02-28T22:40:24.062Z,14.6
2023-02-28T22:42:23.450Z,13.9
2023-02-28T22:44:23.068Z,15.3
2023-02-28T22:46:24.525Z,16.2
2023-02-28T22:48:21.739Z,14.0
2023-02-28T22:50:21.441Z,12.9
2023-02-28T22:52:20.597Z,17.3
2023-02-28T22:54:20.024Z,14.6
2023-02-28T22:56:21.985Z,16.2
2023-02-28T22:58:19.249Z,14.9
2023-02-28T23:00:19.313Z,14.4
2023-02-28T23:02:17.944Z,15.0
2023-02-28T23:04:17.962Z,15.9
2023-02-28T23:06:20.306Z,15.7
2023-02-28T23:08:21.347Z,16.1
2023-02-28T23:10:17.245Z,14.6
2023-02-28T23:12:14.909Z,17.3
2023-02-28T23:14:16.795Z,15.8
2023-02-28T23:16:13.837Z,13.5
2023-02-28T23:18:14.478Z,15.8
2023-02-28T23:20:14.816Z,14.4
2023-02-28T23:22:12.428Z,15.1
2023-02-28T23:24:14.377Z,14.6
2023-02-28T23:26:11.170Z,16.7
2023-02-28T23:28:10.451Z,15.2
2023-02-28T23:30:11.752Z,14.8
2023-02-28T23:32:09.456Z,16.2
2023-02-28T23:34:09.835Z,12.8
2023-02-28T23:36:10.271Z,17.2
2023-02-28T23:38:08.024Z,14.3
2023-02-28T23:40:10.099Z,15.6
2023-02-28T23:42:06.865Z,16.3
2023-02-28T23:44:06.131Z,16.9
2023-02-28T23:46:07.056Z,17.0
2023-02-28T23:48:04.942Z,15.3
2023-02-28T23:50:04.740Z,18.7
2023-02-28T23:52:04.733Z,15.4
2023-02-28T23:54:03.952Z,15.4
2023-02-28T23:56:03.344Z,14.9
2023-02-28T23:58:02.398Z,15.0
